Aérodrome :
LOGIN :

S'inscrire | Disclaimer

   EN    FR    IT 

 










Légende :    VFR   VFR Marginal   IFR   IFR Intensif   IFR Très Intensif
Visi : 
Plafond : 
>= 8 km
>= 3000ft
5 à 8 km
1000 à 3000 ft
1500m à 5 km
500 à 1000 ft
800 à 1500m
200 à 500 ft
< 800m
< 200 ft
Symboles :   Orages  Brouillard  Fortes neiges  Fortes précipitations  Vent > 20 kt
SIGMETs :   Divers  Orages  Givrage  Turbulence  Onde Orograph.  Cendres Volcan.







- Altitude de l'aérodrome : 12 ft
- Code IATA : NCE
- Voir les cartes d'approche


LFMN - Nice

DERNIER METAR :
  • 180630Z 35003KT 330V040 CAVOK 27/12 Q1016 NOSIG

METARs EXPIRÉS :
  • 180600Z 34006KT CAVOK 26/13 Q1016 NOSIG
  • 180530Z 01003KT CAVOK 26/13 Q1016 NOSIG
  • 180500Z 35005KT 330V030 CAVOK 25/13 Q1016 NOSIG
  • 180430Z 36006KT CAVOK 25/13 Q1016 NOSIG
  • 180400Z 33004KT CAVOK 25/13 Q1016 NOSIG

TAF TAF LFMN
Valide du 18 à 03h jusqu'au 19 à 09h UTC


180200Z 1803/1909 34008KT CAVOK
BECMG 1807/1809 18010KT
BECMG 1818/1821 VRB03KT
BECMG 1900/1902 10013KT
PROB30
TEMPO 1903/1909 BKN010
ATIS : +33 4 93 17 21 16
Pas de NOTAMs connus pour ce terrain.



MET'MAP, la Météo Aéronautique d'un coup d'oeil ! - Copyright ORBIFLY Décembre 2007 - Disclaimer

ORBIFLY MET'MAP TEAM :

Programmation & Développement : Alexandra Zaïnal
Conception & Développement : Baudouin d'Aumeries
Co-Programmation & Développement : Marc-Olivier Méhu
Soutien technique & logistique : Manuel Goepfert

Contact : metmap@orbifly.com




SOURCES & CREDITS :

   NOAA